Time;durP1;ratioP1;P1;durP2;ratioP2;P2;SDS_P1;SDS_P2;PMS_P1;PMS_P2;Temp;Humidity;BMP_temperature;BMP_pressure;BME280_temperature;BME280_humidity;BME280_pressure;Samples;Min_cycle;Max_cycle;Signal;HPM_P1;HPM_P2
2023/05/12 00:01:28;;;;;;;12.10;5.97;;;12.90;1.00;;;;;;4971973;28;20395;-56
2023/05/12 00:03:54;;;;;;;12.20;5.90;;;13.00;1.00;;;;;;4972615;28;20389;-55
2023/05/12 00:06:20;;;;;;;13.60;6.10;;;13.10;1.00;;;;;;4972450;28;20396;-55
2023/05/12 00:08:46;;;;;;;13.90;6.20;;;13.10;1.00;;;;;;4971388;28;20709;-56
2023/05/12 00:11:12;;;;;;;12.70;5.60;;;13.10;1.00;;;;;;4972259;28;20404;-55
2023/05/12 00:13:37;;;;;;;14.95;6.53;;;13.00;1.00;;;;;;4971967;28;20389;-55
2023/05/12 00:16:04;;;;;;;11.00;5.93;;;12.90;1.00;;;;;;4971902;28;20491;-55
2023/05/12 00:18:30;;;;;;;12.65;6.18;;;12.90;1.00;;;;;;4971744;28;20398;-55
2023/05/12 00:20:56;;;;;;;14.80;7.25;;;12.80;1.00;;;;;;4972175;28;20391;-55
2023/05/12 00:23:21;;;;;;;13.00;6.10;;;12.80;1.00;;;;;;4971989;28;20395;-55
2023/05/12 00:25:47;;;;;;;12.07;5.75;;;12.80;1.00;;;;;;4971134;28;20391;-55
2023/05/12 00:28:13;;;;;;;13.35;6.55;;;12.90;1.00;;;;;;4972183;28;20428;-55
2023/05/12 00:30:39;;;;;;;12.70;6.47;;;12.80;1.00;;;;;;4971158;28;20887;-55
2023/05/12 00:33:04;;;;;;;14.33;7.10;;;12.80;1.00;;;;;;4972292;28;20393;-55
2023/05/12 00:35:30;;;;;;;14.40;7.07;;;12.80;1.00;;;;;;4971367;28;20388;-55
2023/05/12 00:37:56;;;;;;;14.73;6.83;;;12.70;1.00;;;;;;4971408;28;20404;-55
2023/05/12 00:40:21;;;;;;;13.30;6.80;;;12.60;1.00;;;;;;4971687;28;20479;-55
2023/05/12 00:42:48;;;;;;;14.17;7.13;;;12.60;1.00;;;;;;4970839;28;20991;-55
2023/05/12 00:45:14;;;;;;;12.93;6.20;;;12.60;1.00;;;;;;4971514;28;20948;-55
2023/05/12 00:47:40;;;;;;;12.75;6.15;;;12.60;1.00;;;;;;4971140;28;20467;-55
2023/05/12 00:50:07;;;;;;;11.75;6.10;;;12.50;1.00;;;;;;4971934;28;20854;-55
2023/05/12 00:52:33;;;;;;;13.45;6.30;;;12.50;1.00;;;;;;4970395;28;20801;-55
2023/05/12 00:55:00;;;;;;;14.30;6.90;;;12.50;1.00;;;;;;4971320;28;20404;-55
2023/05/12 00:57:26;;;;;;;15.23;7.05;;;12.50;1.00;;;;;;4971528;28;20408;-55
2023/05/12 00:59:53;;;;;;;16.38;7.40;;;12.70;1.00;;;;;;4970783;28;20487;-55
2023/05/12 01:02:20;;;;;;;14.93;7.00;;;12.60;1.00;;;;;;4971399;28;20408;-55
2023/05/12 01:04:46;;;;;;;14.18;7.57;;;12.60;1.00;;;;;;4970723;28;20403;-55
2023/05/12 01:07:19;;;;;;;13.85;6.90;;;12.60;1.00;;;;;;4971288;28;20416;-55
2023/05/12 01:09:44;;;;;;;14.80;7.20;;;12.60;1.00;;;;;;4970610;28;20846;-55
2023/05/12 01:12:10;;;;;;;16.08;6.82;;;12.70;1.00;;;;;;4971202;28;20391;-55
2023/05/12 01:14:35;;;;;;;15.10;7.30;;;12.70;1.00;;;;;;4970514;28;20411;-55
2023/05/12 01:17:06;;;;;;;17.17;8.00;;;12.70;1.00;;;;;;4971217;28;20414;-55
2023/05/12 01:19:50;;;;;;;15.82;6.63;;;12.70;1.00;;;;;;4953422;28;20424;-55
2023/05/12 01:22:17;;;;;;;15.35;7.75;;;12.70;1.00;;;;;;4953865;28;20416;-55
2023/05/12 01:24:50;;;;;;;15.27;7.35;;;12.70;1.00;;;;;;4970315;28;20388;-55
2023/05/12 01:27:16;;;;;;;14.68;6.68;;;12.70;1.00;;;;;;4970413;28;20446;-55
2023/05/12 01:29:45;;;;;;;15.23;7.40;;;12.70;1.00;;;;;;4970087;28;20463;-55
2023/05/12 01:32:12;;;;;;;17.40;7.50;;;12.60;1.00;;;;;;4971061;28;20481;-55
2023/05/12 01:34:37;;;;;;;14.18;7.05;;;12.70;1.00;;;;;;4970291;28;20384;-55
2023/05/12 01:37:03;;;;;;;15.33;7.53;;;12.70;1.00;;;;;;4970913;28;20396;-55
2023/05/12 01:39:29;;;;;;;15.27;7.85;;;12.60;1.00;;;;;;4970184;28;20384;-55
2023/05/12 01:41:55;;;;;;;16.67;8.03;;;12.60;1.00;;;;;;4970975;28;20384;-55
2023/05/12 01:44:20;;;;;;;18.25;9.05;;;12.50;1.00;;;;;;4970996;28;20850;-55
2023/05/12 01:46:47;;;;;;;18.27;8.68;;;12.60;1.00;;;;;;4970159;28;20451;-55
2023/05/12 01:49:12;;;;;;;17.85;8.27;;;12.60;1.00;;;;;;4971639;28;20388;-55
2023/05/12 01:51:38;;;;;;;18.97;8.90;;;12.60;1.00;;;;;;4974172;28;20466;-55
2023/05/12 01:54:04;;;;;;;17.95;8.52;;;12.60;1.00;;;;;;4974806;28;20395;-55
2023/05/12 01:56:29;;;;;;;17.83;8.37;;;12.50;1.00;;;;;;4973365;28;20770;-55
2023/05/12 01:58:55;;;;;;;17.80;8.60;;;12.60;1.00;;;;;;4974275;28;20400;-55
2023/05/12 02:01:23;;;;;;;16.03;7.50;;;12.60;1.00;;;;;;4974072;28;20799;-55
2023/05/12 02:03:49;;;;;;;17.73;7.80;;;12.70;1.00;;;;;;4973711;28;20723;-55
2023/05/12 02:06:15;;;;;;;15.27;7.60;;;12.60;1.00;;;;;;4974118;28;20769;-55
2023/05/12 02:08:41;;;;;;;16.48;8.02;;;12.50;1.00;;;;;;4973487;28;20456;-55
2023/05/12 02:11:07;;;;;;;16.20;8.45;;;12.60;1.00;;;;;;4974243;28;20396;-55
2023/05/12 02:13:34;;;;;;;15.13;7.30;;;12.60;1.00;;;;;;4974238;28;20384;-55
2023/05/12 02:16:00;;;;;;;15.38;8.30;;;12.50;1.00;;;;;;4974467;28;20438;-55
2023/05/12 02:18:26;;;;;;;15.30;7.78;;;12.50;1.00;;;;;;4974212;28;20411;-55
2023/05/12 02:20:52;;;;;;;18.47;8.50;;;12.50;1.00;;;;;;4973473;28;21005;-55
2023/05/12 02:23:18;;;;;;;13.23;7.07;;;12.40;1.00;;;;;;4973896;28;20459;-55
2023/05/12 02:25:43;;;;;;;17.67;7.75;;;12.60;1.00;;;;;;4973415;28;20396;-55
2023/05/12 02:28:10;;;;;;;17.43;7.60;;;12.60;1.00;;;;;;4974210;28;20424;-55
2023/05/12 02:30:37;;;;;;;15.05;8.00;;;12.70;1.00;;;;;;4973757;28;20451;-55
2023/05/12 02:33:04;;;;;;;17.13;8.07;;;12.70;1.00;;;;;;4972824;28;20742;-55
2023/05/12 02:35:30;;;;;;;18.93;8.40;;;12.80;1.00;;;;;;4965023;28;20392;-55
2023/05/12 02:37:56;;;;;;;16.42;8.27;;;12.70;1.00;;;;;;4953919;29;20520;-55
2023/05/12 02:40:22;;;;;;;18.20;9.35;;;12.60;1.00;;;;;;4954459;29;20405;-55
2023/05/12 02:42:48;;;;;;;19.85;9.07;;;12.80;1.00;;;;;;4953869;29;20725;-55
2023/05/12 02:45:13;;;;;;;20.33;9.30;;;12.70;1.00;;;;;;4954882;29;20429;-55
2023/05/12 02:47:39;;;;;;;18.27;8.90;;;12.50;1.00;;;;;;4954154;29;20425;-55
2023/05/12 02:50:05;;;;;;;21.33;9.30;;;12.50;1.00;;;;;;4954363;29;20852;-55
2023/05/12 02:52:31;;;;;;;19.70;8.57;;;12.40;1.00;;;;;;4953962;29;20445;-55
2023/05/12 02:54:57;;;;;;;18.83;8.20;;;12.40;1.00;;;;;;4953670;29;20402;-55
2023/05/12 02:57:25;;;;;;;18.10;8.45;;;12.50;1.00;;;;;;4954487;29;20819;-55
2023/05/12 02:59:51;;;;;;;17.67;8.75;;;12.50;1.00;;;;;;4953198;28;20854;-55
2023/05/12 03:02:17;;;;;;;20.45;7.70;;;12.50;1.00;;;;;;4969856;28;20400;-55
2023/05/12 03:04:42;;;;;;;20.70;9.33;;;12.60;1.00;;;;;;4972932;28;20384;-55
2023/05/12 03:07:08;;;;;;;17.80;8.07;;;12.50;1.00;;;;;;4973323;28;20909;-55
2023/05/12 03:09:34;;;;;;;21.75;9.10;;;12.50;1.00;;;;;;4972495;28;20380;-55
2023/05/12 03:12:00;;;;;;;20.83;8.90;;;12.40;1.00;;;;;;4971986;28;20503;-55
2023/05/12 03:14:27;;;;;;;23.23;10.40;;;12.40;1.00;;;;;;4973276;28;20388;-55
2023/05/12 03:16:53;;;;;;;22.25;10.45;;;12.50;1.00;;;;;;4972974;28;20515;-55
2023/05/12 03:19:18;;;;;;;22.63;9.40;;;12.50;1.00;;;;;;4973462;28;20380;-55
2023/05/12 03:21:44;;;;;;;21.65;9.70;;;12.50;1.00;;;;;;4969805;28;20735;-55
2023/05/12 03:24:09;;;;;;;19.40;8.90;;;12.60;1.00;;;;;;4968206;28;20409;-55
2023/05/12 03:26:35;;;;;;;19.17;8.87;;;12.60;1.00;;;;;;4974943;28;20388;-55
2023/05/12 03:29:00;;;;;;;18.98;8.38;;;12.60;1.00;;;;;;4979552;28;20528;-55
2023/05/12 03:31:26;;;;;;;20.33;8.40;;;12.50;1.00;;;;;;4975036;28;20480;-55
2023/05/12 03:33:52;;;;;;;16.77;7.50;;;12.60;1.00;;;;;;4971881;28;20389;-55
2023/05/12 03:36:17;;;;;;;22.13;9.65;;;12.40;1.00;;;;;;4972540;28;20469;-55
2023/05/12 03:38:43;;;;;;;20.10;8.73;;;12.50;1.00;;;;;;4972373;28;20452;-55
2023/05/12 03:41:09;;;;;;;18.95;7.75;;;12.40;1.00;;;;;;4972634;28;20404;-55
2023/05/12 03:43:34;;;;;;;19.53;8.47;;;12.50;1.00;;;;;;4971641;28;20412;-56
2023/05/12 03:46:00;;;;;;;19.83;8.55;;;12.50;1.00;;;;;;4972691;28;20381;-55
2023/05/12 03:48:26;;;;;;;17.10;8.27;;;12.40;1.00;;;;;;4967388;28;20431;-55
2023/05/12 03:50:51;;;;;;;20.20;8.88;;;12.50;1.00;;;;;;4970761;28;20388;-55
2023/05/12 03:53:17;;;;;;;18.47;9.00;;;12.50;1.00;;;;;;4972093;28;21032;-55
2023/05/12 03:55:42;;;;;;;19.93;8.60;;;12.40;1.00;;;;;;4971170;28;20380;-55
2023/05/12 03:58:08;;;;;;;19.40;8.35;;;12.50;1.00;;;;;;4971805;28;20408;-55
2023/05/12 04:00:34;;;;;;;17.90;7.67;;;12.50;1.00;;;;;;4971475;28;20724;-55
2023/05/12 04:02:59;;;;;;;19.70;7.87;;;12.60;1.00;;;;;;4969426;28;20397;-55
2023/05/12 04:05:25;;;;;;;19.30;9.15;;;12.40;1.00;;;;;;4969121;28;20747;-55
2023/05/12 04:07:51;;;;;;;19.73;9.13;;;12.60;1.00;;;;;;4967248;28;21176;-55
2023/05/12 04:10:16;;;;;;;18.73;8.23;;;12.50;1.00;;;;;;4971775;28;21884;-54
2023/05/12 04:12:42;;;;;;;19.50;8.50;;;12.50;1.00;;;;;;4965381;28;20396;-55
2023/05/12 04:15:08;;;;;;;19.92;7.80;;;12.50;1.00;;;;;;4970594;28;20882;-55
2023/05/12 04:17:34;;;;;;;18.98;8.30;;;12.50;1.00;;;;;;4970673;28;20506;-55
2023/05/12 04:19:59;;;;;;;18.13;8.73;;;12.60;1.00;;;;;;4972112;28;20467;-55
2023/05/12 04:22:25;;;;;;;22.77;8.73;;;12.60;1.00;;;;;;4959189;28;20815;-55
2023/05/12 04:24:51;;;;;;;23.35;9.00;;;12.60;1.00;;;;;;4952029;29;20484;-55
2023/05/12 04:27:17;;;;;;;20.40;9.30;;;12.50;1.00;;;;;;4952355;29;20432;-55
2023/05/12 04:29:42;;;;;;;18.90;8.80;;;12.50;1.00;;;;;;4951696;29;20445;-55
2023/05/12 04:32:08;;;;;;;23.93;9.33;;;12.50;1.00;;;;;;4952575;29;20386;-55
2023/05/12 04:34:34;;;;;;;19.63;8.70;;;12.50;1.00;;;;;;4957095;28;20424;-55
2023/05/12 04:36:59;;;;;;;23.73;9.98;;;12.60;1.00;;;;;;4971857;28;20392;-55
2023/05/12 04:39:26;;;;;;;20.30;9.50;;;12.60;1.00;;;;;;4969594;28;20431;-56
2023/05/12 04:41:51;;;;;;;21.40;9.48;;;12.50;1.00;;;;;;4969275;28;20429;-55
2023/05/12 04:44:17;;;;;;;19.77;8.50;;;12.60;1.00;;;;;;4971851;28;20739;-55
2023/05/12 04:46:43;;;;;;;20.17;8.53;;;12.60;1.00;;;;;;4971080;28;20401;-56
2023/05/12 04:49:10;;;;;;;21.23;9.43;;;12.70;1.00;;;;;;4971588;28;20766;-55
2023/05/12 04:51:40;;;;;;;17.45;8.10;;;12.70;1.00;;;;;;4971262;28;20479;-56
2023/05/12 04:54:08;;;;;;;18.25;8.20;;;12.70;1.00;;;;;;4971991;28;20750;-55
2023/05/12 04:56:34;;;;;;;17.45;8.10;;;12.70;1.00;;;;;;4971096;28;20726;-56
2023/05/12 04:58:59;;;;;;;17.38;7.68;;;12.70;1.00;;;;;;4954290;28;20509;-55
2023/05/12 05:01:25;;;;;;;18.30;8.57;;;12.70;1.00;;;;;;4971272;28;20388;-55
2023/05/12 05:03:51;;;;;;;18.73;8.25;;;12.90;1.00;;;;;;4970924;28;20883;-55
2023/05/12 05:06:16;;;;;;;16.10;8.00;;;13.00;1.00;;;;;;4972161;28;20384;-53
2023/05/12 05:08:42;;;;;;;20.02;8.55;;;12.90;1.00;;;;;;4970947;28;20420;-53
2023/05/12 05:11:08;;;;;;;20.23;8.37;;;12.80;1.00;;;;;;4971070;28;20396;-53
2023/05/12 05:13:33;;;;;;;16.87;8.53;;;12.80;1.00;;;;;;4971026;28;20858;-53
2023/05/12 05:15:59;;;;;;;16.38;7.72;;;12.70;1.00;;;;;;4970901;28;20392;-53
2023/05/12 05:18:24;;;;;;;18.40;8.47;;;12.80;1.00;;;;;;4971085;28;20854;-53
2023/05/12 05:20:50;;;;;;;19.03;7.57;;;12.90;1.00;;;;;;4971017;28;20391;-54
2023/05/12 05:23:15;;;;;;;17.70;7.35;;;12.80;1.00;;;;;;4970814;28;20824;-54
2023/05/12 05:25:41;;;;;;;18.17;8.40;;;12.80;1.00;;;;;;4970242;28;20483;-54
2023/05/12 05:28:07;;;;;;;22.10;9.23;;;12.70;1.00;;;;;;4971201;28;20419;-54
2023/05/12 05:30:32;;;;;;;17.40;8.43;;;12.80;1.00;;;;;;4970496;28;20806;-55
2023/05/12 05:32:58;;;;;;;19.50;8.20;;;13.00;1.00;;;;;;4970563;28;20396;-54
2023/05/12 05:35:24;;;;;;;17.23;7.30;;;13.10;1.00;;;;;;4971259;28;20703;-54
2023/05/12 05:37:52;;;;;;;20.53;9.00;;;13.20;1.00;;;;;;4970144;28;20419;-54
2023/05/12 05:40:18;;;;;;;17.17;8.23;;;13.20;1.00;;;;;;4970936;28;20380;-54
2023/05/12 05:42:43;;;;;;;19.20;8.32;;;13.30;1.00;;;;;;4970812;28;20459;-54
2023/05/12 05:45:09;;;;;;;18.10;8.50;;;13.30;1.00;;;;;;4970710;28;20801;-54
2023/05/12 05:47:36;;;;;;;17.48;7.75;;;13.20;1.00;;;;;;4970398;28;20519;-55
2023/05/12 05:50:05;;;;;;;17.83;7.32;;;13.30;1.00;;;;;;4971019;28;20747;-54
2023/05/12 05:52:31;;;;;;;17.17;7.57;;;13.50;1.00;;;;;;4970932;28;20450;-54
2023/05/12 05:54:56;;;;;;;16.88;7.63;;;13.40;1.00;;;;;;4970362;28;20406;-54
2023/05/12 05:57:22;;;;;;;16.08;7.50;;;13.30;1.00;;;;;;4970945;28;20475;-54
2023/05/12 05:59:48;;;;;;;15.50;7.40;;;13.30;1.00;;;;;;4970263;28;20404;-54
2023/05/12 06:02:14;;;;;;;16.02;7.63;;;13.50;1.00;;;;;;4971068;28;20928;-54
2023/05/12 06:04:39;;;;;;;17.97;8.70;;;13.60;99.90;;;;;;4964746;28;20400;-54
2023/05/12 06:07:05;;;;;;;17.10;7.93;;;13.70;99.90;;;;;;4959439;28;20442;-56
2023/05/12 06:09:31;;;;;;;15.20;7.13;;;13.70;99.90;;;;;;4965705;28;20394;-54
2023/05/12 06:11:56;;;;;;;15.80;7.07;;;13.60;99.90;;;;;;4933658;29;20500;-54
2023/05/12 06:14:22;;;;;;;17.43;7.43;;;13.70;99.90;;;;;;4960953;28;20551;-54
2023/05/12 06:16:48;;;;;;;15.47;7.30;;;13.70;99.90;;;;;;4970049;28;20376;-54
2023/05/12 06:19:14;;;;;;;21.42;6.80;;;13.80;99.90;;;;;;4970931;28;20389;-54
2023/05/12 06:21:40;;;;;;;15.88;7.63;;;13.90;99.90;;;;;;4969786;28;20893;-54
2023/05/12 06:24:05;;;;;;;14.47;6.87;;;14.10;99.90;;;;;;4951554;28;20397;-54
2023/05/12 06:26:31;;;;;;;14.52;7.07;;;14.20;99.90;;;;;;4951151;29;20417;-54
2023/05/12 06:28:57;;;;;;;14.00;7.10;;;14.30;99.90;;;;;;4949980;29;21165;-54
2023/05/12 06:31:22;;;;;;;15.70;7.27;;;14.30;91.90;;;;;;4951325;29;20398;-54
2023/05/12 06:33:48;;;;;;;15.98;7.38;;;14.20;6.90;;;;;;4950175;29;20404;-54
2023/05/12 06:36:14;;;;;;;15.73;7.47;;;14.10;99.90;;;;;;4953666;28;20386;-54
2023/05/12 06:38:40;;;;;;;15.02;7.60;;;14.10;99.90;;;;;;4954189;29;20406;-54
2023/05/12 06:41:05;;;;;;;14.57;6.30;;;14.10;99.90;;;;;;4973196;28;20486;-54
2023/05/12 06:43:31;;;;;;;15.83;7.70;;;13.90;99.90;;;;;;4974169;28;20416;-54
2023/05/12 06:45:56;;;;;;;15.90;7.60;;;14.20;99.90;;;;;;4973490;28;21011;-54
2023/05/12 06:48:23;;;;;;;16.23;8.03;;;14.20;99.90;;;;;;4973681;28;20408;-54
2023/05/12 06:50:48;;;;;;;15.43;7.38;;;14.30;99.90;;;;;;4972858;28;20541;-54
2023/05/12 06:53:14;;;;;;;15.33;7.30;;;14.30;99.90;;;;;;4973982;28;20854;-54
2023/05/12 06:55:42;;;;;;;16.52;7.70;;;14.30;99.90;;;;;;4973431;28;20396;-54
2023/05/12 06:58:07;;;;;;;14.20;7.22;;;14.20;99.90;;;;;;4973525;28;20416;-54
2023/05/12 07:00:33;;;;;;;16.90;7.60;;;14.30;99.90;;;;;;4973588;28;20925;-54
2023/05/12 07:02:59;;;;;;;13.57;6.55;;;14.10;99.90;;;;;;4973057;28;20487;-54
2023/05/12 07:05:25;;;;;;;14.25;6.45;;;14.10;99.90;;;;;;4973554;28;20451;-54
2023/05/12 07:07:51;;;;;;;14.80;6.72;;;14.20;99.90;;;;;;4972737;28;20415;-54
2023/05/12 07:10:17;;;;;;;16.73;7.70;;;14.30;99.90;;;;;;4973817;28;20843;-54
2023/05/12 07:12:43;;;;;;;14.18;6.95;;;14.20;99.90;;;;;;4972958;28;20388;-55
2023/05/12 07:15:09;;;;;;;13.57;6.50;;;14.40;99.90;;;;;;4955814;28;20458;-54
2023/05/12 07:17:34;;;;;;;13.55;6.80;;;14.40;99.90;;;;;;4936255;29;20767;-54
2023/05/12 07:20:00;;;;;;;14.52;6.30;;;14.70;99.90;;;;;;4953996;29;20386;-54
2023/05/12 07:22:26;;;;;;;14.00;6.03;;;14.80;1.00;;;;;;4954053;29;20500;-54
2023/05/12 07:24:51;;;;;;;13.02;6.53;;;14.70;29.00;;;;;;4953309;29;20410;-54
2023/05/12 07:27:17;;;;;;;12.65;5.80;;;14.60;99.90;;;;;;4953487;29;20421;-54
2023/05/12 07:29:43;;;;;;;12.30;5.80;;;14.60;99.90;;;;;;4943639;29;21025;-54
2023/05/12 07:32:09;;;;;;;13.45;6.50;;;14.70;14.00;;;;;;4934657;29;20394;-54
2023/05/12 07:34:34;;;;;;;11.20;5.73;;;14.80;99.90;;;;;;4934755;29;20388;-55
2023/05/12 07:37:01;;;;;;;14.80;6.30;;;15.00;1.00;;;;;;4934164;29;20396;-54
2023/05/12 07:39:27;;;;;;;11.80;5.10;;;15.10;1.00;;;;;;4934504;29;20392;-54
2023/05/12 07:41:54;;;;;;;13.45;6.20;;;15.20;99.90;;;;;;4933835;29;20402;-53
2023/05/12 07:44:20;;;;;;;11.40;5.57;;;15.50;99.90;;;;;;4934383;29;20384;-53
2023/05/12 07:46:45;;;;;;;11.05;5.60;;;15.50;1.00;;;;;;4932851;29;20399;-54
2023/05/12 07:49:11;;;;;;;9.80;4.77;;;15.70;1.00;;;;;;4934231;29;20423;-53
2023/05/12 07:51:38;;;;;;;11.15;4.40;;;15.80;1.00;;;;;;4934201;29;20395;-54
2023/05/12 07:54:03;;;;;;;9.30;4.00;;;15.80;99.90;;;;;;4934112;29;20399;-53
2023/05/12 07:56:29;;;;;;;10.23;4.20;;;15.70;99.90;;;;;;4933991;29;20403;-53
2023/05/12 07:58:55;;;;;;;9.00;4.15;;;15.70;98.40;;;;;;4934020;29;20481;-53
2023/05/12 08:01:21;;;;;;;10.55;5.00;;;15.50;1.00;;;;;;4934416;29;20399;-53
2023/05/12 08:03:47;;;;;;;10.00;3.97;;;15.60;1.00;;;;;;4933231;29;20385;-53
2023/05/12 08:06:12;;;;;;;7.75;3.20;;;15.50;99.90;;;;;;4934173;29;20842;-53
2023/05/12 08:08:38;;;;;;;7.70;3.42;;;15.60;1.00;;;;;;4932927;29;20499;-54
2023/05/12 08:11:04;;;;;;;9.17;4.10;;;15.90;89.60;;;;;;4934097;29;20391;-53
2023/05/12 08:13:29;;;;;;;9.13;3.27;;;16.20;1.00;;;;;;4938471;29;20402;-53
2023/05/12 08:15:55;;;;;;;8.15;3.47;;;16.50;1.00;;;;;;4952012;29;20424;-54
2023/05/12 08:18:21;;;;;;;8.45;3.30;;;16.90;1.00;;;;;;4952948;29;20406;-53
2023/05/12 08:20:49;;;;;;;9.23;3.72;;;16.80;1.00;;;;;;4952345;29;20551;-53
2023/05/12 08:23:16;;;;;;;7.55;3.15;;;16.70;1.00;;;;;;4952696;29;20398;-54
2023/05/12 08:25:43;;;;;;;8.50;3.90;;;16.90;1.00;;;;;;4952238;29;20945;-54
2023/05/12 08:28:10;;;;;;;9.98;4.18;;;17.20;1.00;;;;;;4952226;29;20772;-53
2023/05/12 08:30:36;;;;;;;7.43;3.67;;;17.30;99.90;;;;;;4969040;28;20898;-54
2023/05/12 08:33:02;;;;;;;7.97;3.45;;;17.30;99.90;;;;;;4971408;28;20471;-54
2023/05/12 08:35:29;;;;;;;8.85;3.40;;;17.30;99.90;;;;;;4972162;28;20392;-54
2023/05/12 08:37:55;;;;;;;8.02;3.10;;;17.50;99.90;;;;;;4971307;28;20836;-54
2023/05/12 08:40:22;;;;;;;9.13;3.80;;;17.80;99.90;;;;;;4972418;28;20376;-55
2023/05/12 08:43:17;;;;;;;8.07;3.42;;;17.70;99.90;;;;;;4971482;28;20424;-54
2023/05/12 08:45:44;;;;;;;8.10;3.30;;;17.30;99.90;;;;;;4971246;28;20750;-54
2023/05/12 08:48:12;;;;;;;9.17;4.00;;;17.10;99.90;;;;;;4971723;28;20948;-54
2023/05/12 08:50:39;;;;;;;8.07;3.40;;;17.30;99.90;;;;;;4971339;28;20733;-54
2023/05/12 08:53:09;;;;;;;8.30;3.60;;;17.50;99.90;;;;;;4971620;28;20523;-54
2023/05/12 08:55:35;;;;;;;8.80;3.53;;;17.60;72.10;;;;;;4971915;28;20862;-54
2023/05/12 08:58:02;;;;;;;9.57;3.63;;;17.70;13.70;;;;;;4971475;28;20400;-54
2023/05/12 09:00:29;;;;;;;7.75;2.95;;;17.60;38.20;;;;;;4971571;28;20396;-54
2023/05/12 09:02:58;;;;;;;7.38;3.33;;;17.30;1.80;;;;;;4971475;28;21055;-54
2023/05/12 09:05:26;;;;;;;7.80;3.15;;;17.20;18.20;;;;;;4954495;28;20497;-54
2023/05/12 09:07:54;;;;;;;8.27;3.47;;;17.10;37.40;;;;;;4970234;28;20416;-54
2023/05/12 09:10:22;;;;;;;8.77;3.50;;;16.70;57.50;;;;;;4971176;28;20449;-54
2023/05/12 09:12:53;;;;;;;8.60;3.80;;;16.60;58.20;;;;;;4970430;28;20885;-54
2023/05/12 09:15:24;;;;;;;8.70;3.80;;;16.40;99.90;;;;;;4952127;28;21169;-54
2023/05/12 09:17:50;;;;;;;8.13;3.33;;;16.30;1.00;;;;;;4951382;29;20855;-54
2023/05/12 09:20:16;;;;;;;9.00;4.00;;;16.50;1.00;;;;;;4951657;29;20386;-54
2023/05/12 09:22:42;;;;;;;8.80;3.83;;;17.00;99.90;;;;;;4951405;29;20440;-54
2023/05/12 09:25:19;;;;;;;11.30;4.32;;;17.20;99.90;;;;;;4952090;29;20879;-54
2023/05/12 09:27:52;;;;;;;9.65;4.18;;;17.30;27.80;;;;;;4951243;29;20942;-54
2023/05/12 09:30:29;;;;;;;8.43;3.80;;;17.50;44.90;;;;;;4951823;29;20424;-54
2023/05/12 09:33:05;;;;;;;9.00;3.55;;;17.60;3.90;;;;;;4951051;29;20419;-54
2023/05/12 09:35:31;;;;;;;8.50;3.50;;;17.50;1.00;;;;;;4952123;29;20855;-54
2023/05/12 09:38:03;;;;;;;8.50;3.47;;;17.50;23.70;;;;;;4951489;29;20548;-54
2023/05/12 09:40:29;;;;;;;8.00;3.40;;;17.90;1.00;;;;;;4952452;29;20390;-54
2023/05/12 09:42:55;;;;;;;8.60;3.50;;;17.70;1.00;;;;;;4951284;29;20718;-54
2023/05/12 09:45:22;;;;;;;7.47;2.60;;;17.40;1.00;;;;;;4951626;29;20450;-54
2023/05/12 09:47:48;;;;;;;8.03;3.20;;;17.20;1.00;;;;;;4950726;29;20417;-55
2023/05/12 09:50:13;;;;;;;8.07;3.78;;;16.90;1.00;;;;;;4951375;29;20413;-54
2023/05/12 09:52:39;;;;;;;8.20;3.10;;;16.90;1.00;;;;;;4951036;29;20924;-55
2023/05/12 09:55:09;;;;;;;8.37;3.30;;;17.00;1.00;;;;;;4935006;29;20400;-54
2023/05/12 09:57:39;;;;;;;10.25;3.50;;;17.20;1.00;;;;;;4951732;29;20492;-54
2023/05/12 10:00:07;;;;;;;8.20;3.00;;;17.40;1.00;;;;;;4951549;29;20390;-54
2023/05/12 10:02:34;;;;;;;7.63;3.20;;;17.30;1.00;;;;;;4951923;29;20844;-54
2023/05/12 10:05:04;;;;;;;7.95;2.88;;;17.40;1.00;;;;;;4951010;29;21191;-54
2023/05/12 10:07:32;;;;;;;7.90;2.97;;;17.60;1.00;;;;;;4951704;29;20418;-54
2023/05/12 10:10:01;;;;;;;6.90;2.70;;;17.90;1.00;;;;;;4951214;28;20397;-54
2023/05/12 10:12:28;;;;;;;7.35;2.58;;;18.30;1.00;;;;;;4955341;29;20866;-54
2023/05/12 10:14:55;;;;;;;7.40;2.60;;;17.40;1.00;;;;;;4969991;28;20519;-55
2023/05/12 10:17:23;;;;;;;6.85;2.90;;;18.80;1.00;;;;;;4974543;28;20467;-54
2023/05/12 10:19:50;;;;;;;7.67;3.00;;;18.80;1.00;;;;;;4956346;28;20415;-54
2023/05/12 10:22:18;;;;;;;8.88;3.47;;;18.60;1.00;;;;;;4974231;28;20372;-54
2023/05/12 10:24:44;;;;;;;9.00;3.78;;;18.10;1.00;;;;;;4973282;28;20399;-54
2023/05/12 10:27:12;;;;;;;8.30;3.10;;;17.80;1.00;;;;;;4974183;28;20857;-54
2023/05/12 10:29:39;;;;;;;8.00;3.03;;;17.60;1.00;;;;;;4973766;28;20554;-54
2023/05/12 10:32:05;;;;;;;8.00;3.30;;;17.30;1.00;;;;;;4973863;28;20388;-54
2023/05/12 10:34:38;;;;;;;8.10;2.97;;;17.10;1.00;;;;;;4974241;28;20479;-54
2023/05/12 10:37:09;;;;;;;6.80;2.33;;;16.90;1.00;;;;;;4973579;28;20395;-54
2023/05/12 10:39:35;;;;;;;7.03;2.30;;;16.80;1.00;;;;;;4973867;28;20477;-54
2023/05/12 10:42:08;;;;;;;7.63;2.83;;;17.00;1.00;;;;;;4973274;28;20874;-54
2023/05/12 10:44:35;;;;;;;7.70;2.60;;;17.20;1.00;;;;;;4974624;28;20384;-54
2023/05/12 10:47:10;;;;;;;6.20;2.20;;;17.30;1.00;;;;;;4972733;28;20463;-54
2023/05/12 10:49:40;;;;;;;7.72;2.92;;;17.40;1.00;;;;;;4974098;28;20396;-54
2023/05/12 10:52:06;;;;;;;6.90;2.45;;;16.60;1.00;;;;;;4973462;28;20900;-54
2023/05/12 10:54:43;;;;;;;7.20;2.60;;;17.40;1.00;;;;;;4973822;28;20388;-54
2023/05/12 10:57:13;;;;;;;7.40;3.00;;;17.30;1.00;;;;;;4973796;28;20396;-54
2023/05/12 10:59:55;;;;;;;6.88;2.42;;;17.30;1.00;;;;;;4973174;28;20946;-54
2023/05/12 11:02:29;;;;;;;6.88;2.30;;;17.30;1.00;;;;;;4973488;28;20539;-54
2023/05/12 11:05:00;;;;;;;9.57;2.80;;;17.60;1.00;;;;;;4972556;28;20478;-54
2023/05/12 11:07:28;;;;;;;6.65;2.20;;;18.00;1.00;;;;;;4973698;28;20439;-54
2023/05/12 11:09:56;;;;;;;7.13;1.80;;;17.80;1.00;;;;;;4972853;28;20466;-54
2023/05/12 11:12:23;;;;;;;6.40;1.90;;;17.60;1.00;;;;;;4973774;28;20396;-54
2023/05/12 11:14:49;;;;;;;5.50;1.30;;;17.80;1.00;;;;;;4957736;28;20394;-54
2023/05/12 11:17:15;;;;;;;5.80;1.57;;;17.70;1.00;;;;;;4954598;29;20997;-54
2023/05/12 11:19:48;;;;;;;5.40;1.43;;;17.70;1.00;;;;;;4953469;29;20403;-54
2023/05/12 11:22:18;;;;;;;5.50;1.70;;;17.70;1.00;;;;;;4953195;28;20474;-54
2023/05/12 11:24:44;;;;;;;7.60;1.70;;;17.70;1.00;;;;;;4953351;29;20748;-54
2023/05/12 11:27:15;;;;;;;5.80;1.80;;;17.70;1.00;;;;;;4954047;29;20398;-54
2023/05/12 11:29:42;;;;;;;5.50;1.60;;;17.70;1.00;;;;;;4953431;29;20461;-54
2023/05/12 11:32:09;;;;;;;6.50;1.92;;;17.60;1.00;;;;;;4953541;29;20752;-54
2023/05/12 11:34:34;;;;;;;5.70;1.90;;;17.70;1.00;;;;;;4953573;29;20907;-54
2023/05/12 11:37:02;;;;;;;6.72;2.05;;;17.60;1.00;;;;;;4953066;29;20406;-54
2023/05/12 11:39:31;;;;;;;6.40;2.20;;;17.60;1.00;;;;;;4954050;29;20390;-54
2023/05/12 11:42:06;;;;;;;6.43;2.25;;;17.40;1.00;;;;;;4952845;29;20485;-54
2023/05/12 11:44:32;;;;;;;6.57;2.10;;;17.40;1.00;;;;;;4953707;29;20441;-54
2023/05/12 11:47:09;;;;;;;7.57;2.87;;;17.30;1.00;;;;;;4953013;29;20429;-54
2023/05/12 11:49:48;;;;;;;7.07;2.80;;;17.40;1.00;;;;;;4953742;29;20409;-54
2023/05/12 11:52:15;;;;;;;7.90;3.80;;;17.40;1.00;;;;;;4953662;29;20879;-54
2023/05/12 11:54:51;;;;;;;7.13;3.10;;;17.20;1.00;;;;;;4952708;29;20394;-54
2023/05/12 11:57:34;;;;;;;9.07;3.38;;;17.30;1.00;;;;;;4953739;29;20412;-54
2023/05/12 12:00:06;;;;;;;9.70;3.78;;;17.50;1.00;;;;;;4952308;29;20398;-54
2023/05/12 12:02:32;;;;;;;6.00;2.30;;;17.80;1.00;;;;;;4920545;29;20871;-56
2023/05/12 12:04:58;;;;;;;6.88;2.30;;;17.80;1.00;;;;;;4935941;29;21084;-56
2023/05/12 12:07:34;;;;;;;6.50;2.20;;;18.00;1.00;;;;;;4953209;29;20418;-56
2023/05/12 12:10:14;;;;;;;5.68;1.88;;;18.30;1.00;;;;;;4952290;29;20389;-54
2023/05/12 12:12:40;;;;;;;6.20;2.00;;;18.60;1.00;;;;;;4952946;29;20425;-54
2023/05/12 12:15:06;;;;;;;6.63;2.30;;;18.90;1.00;;;;;;4970150;28;20396;-56
2023/05/12 12:17:32;;;;;;;6.30;1.70;;;19.00;1.00;;;;;;4972298;28;20415;-56
2023/05/12 12:19:58;;;;;;;7.40;1.60;;;19.10;1.00;;;;;;4971335;28;20428;-56
2023/05/12 12:22:23;;;;;;;6.00;2.00;;;19.00;1.00;;;;;;4972517;28;20396;-56
2023/05/12 12:24:49;;;;;;;6.70;2.03;;;19.30;1.00;;;;;;4971231;28;20471;-56
2023/05/12 12:27:14;;;;;;;7.43;2.30;;;19.20;1.00;;;;;;4972209;28;20384;-56
2023/05/12 12:29:40;;;;;;;6.40;1.80;;;19.20;1.00;;;;;;4972057;28;20439;-57
2023/05/12 12:32:07;;;;;;;6.90;2.20;;;19.30;1.00;;;;;;4971915;28;20388;-56
2023/05/12 12:34:33;;;;;;;6.90;2.40;;;19.40;1.00;;;;;;4971800;28;20399;-56
2023/05/12 12:36:59;;;;;;;7.38;2.60;;;19.00;1.00;;;;;;4972107;28;20410;-56
2023/05/12 12:39:24;;;;;;;6.63;2.47;;;18.90;1.00;;;;;;4972045;28;20424;-56
2023/05/12 12:41:50;;;;;;;7.77;3.00;;;18.90;1.00;;;;;;4971348;28;20392;-56
2023/05/12 12:44:16;;;;;;;9.52;3.95;;;18.70;1.00;;;;;;4971785;28;20850;-56
2023/05/12 12:46:42;;;;;;;8.02;3.90;;;18.80;1.00;;;;;;4971583;28;20911;-56